Time;durP1;ratioP1;P1;durP2;ratioP2;P2;SDS_P1;SDS_P2;PMS_P1;PMS_P2;Temp;Humidity;BMP_temperature;BMP_pressure;BME280_temperature;BME280_humidity;BME280_pressure;Samples;Min_cycle;Max_cycle;Signal;HPM_P1;HPM_P2
2023/08/23 00:02:32;;;;;;;30.52;19.63;;;;;;;;;;4896552;29;20043;-81
2023/08/23 00:04:58;;;;;;;39.50;19.23;;;;;;;;;;4877436;29;20400;-83
2023/08/23 00:07:24;;;;;;;26.85;17.35;;;;;;;;;;4877436;29;20048;-82
2023/08/23 00:09:50;;;;;;;27.38;16.77;;;;;;;;;;4889279;29;20551;-82
2023/08/23 00:12:17;;;;;;;25.35;16.13;;;;;;;;;;4880898;29;20036;-84
2023/08/23 00:14:43;;;;;;;25.13;17.20;;;;;;;;;;4896334;29;20071;-84
2023/08/23 00:17:09;;;;;;;23.80;16.80;;;;;;;;;;4895696;29;20033;-84
2023/08/23 00:19:35;;;;;;;24.95;16.80;;;;;;;;;;4896120;29;20522;-81
2023/08/23 00:22:02;;;;;;;24.20;16.63;;;;;;;;;;4942850;29;20118;-83
2023/08/23 00:24:28;;;;;;;23.40;17.63;;;24.70;99.90;;;;;;4936724;29;20029;-82
2023/08/23 00:26:55;;;;;;;27.65;17.50;;;24.70;99.90;;;;;;4936877;29;20094;-83
2023/08/23 00:29:21;;;;;;;25.27;18.13;;;24.60;99.90;;;;;;4937064;29;20086;-83
2023/08/23 00:31:46;;;;;;;26.75;17.55;;;24.60;99.90;;;;;;4936580;29;20468;-83
2023/08/23 00:34:12;;;;;;;22.95;17.85;;;24.40;99.90;;;;;;4961307;28;20074;-82
2023/08/23 00:36:38;;;;;;;29.98;17.85;;;24.40;99.90;;;;;;4957564;28;20046;-83
2023/08/23 00:39:04;;;;;;;25.27;18.98;;;24.40;99.90;;;;;;4960756;28;20350;-83
2023/08/23 00:41:30;;;;;;;30.45;19.30;;;24.40;99.90;;;;;;4978854;28;20086;-83
2023/08/23 00:43:55;;;;;;;29.67;19.00;;;24.30;99.90;;;;;;4978318;28;20565;-82
2023/08/23 00:46:22;;;;;;;30.38;19.05;;;24.30;99.90;;;;;;4960501;28;20045;-82
2023/08/23 00:48:49;;;;;;;27.13;19.33;;;24.20;99.90;;;;;;4960910;28;20058;-83
2023/08/23 00:51:16;;;;;;;31.35;19.30;;;24.20;99.90;;;;;;4960858;28;20026;-83
2023/08/23 00:53:42;;;;;;;30.38;19.42;;;24.20;99.90;;;;;;4960532;28;20041;-81
2023/08/23 00:56:08;;;;;;;27.38;18.63;;;24.10;99.90;;;;;;4978942;28;20066;-82
2023/08/23 00:58:34;;;;;;;27.48;18.88;;;24.00;99.90;;;;;;4980279;28;20114;-83
2023/08/23 01:01:00;;;;;;;27.60;19.45;;;24.00;99.90;;;;;;4979716;28;20038;-82
2023/08/23 01:03:26;;;;;;;30.55;20.23;;;24.00;99.90;;;;;;4997645;28;20093;-84
2023/08/23 01:06:08;;;;;;;32.63;21.38;;;24.00;99.90;;;;;;4997241;28;20465;-83
2023/08/23 01:09:06;;;;;;;;;;;24.00;99.90;;;;;;4980506;28;20026;-83
2023/08/23 01:11:54;;;;;;;34.42;19.65;;;24.00;99.90;;;;;;4954788;28;19944;-83
2023/08/23 01:14:34;;;;;;;27.95;18.42;;;24.00;99.90;;;;;;4996174;28;20026;-82
2023/08/23 01:17:01;;;;;;;29.90;19.95;;;23.90;99.90;;;;;;4997187;28;20113;-82
2023/08/23 01:19:44;;;;;;;27.80;19.75;;;24.00;99.90;;;;;;4979776;28;20112;-83
2023/08/23 01:22:19;;;;;;;31.50;21.20;;;23.90;99.90;;;;;;4986689;28;20034;-83
2023/08/23 01:24:45;;;;;;;29.38;19.08;;;23.90;99.90;;;;;;4997046;28;20037;-82
2023/08/23 01:27:11;;;;;;;28.77;19.73;;;24.00;99.90;;;;;;4979026;28;20058;-84
2023/08/23 01:29:37;;;;;;;27.90;19.67;;;23.90;99.90;;;;;;4996988;28;20120;-82
2023/08/23 01:32:35;;;;;;;29.15;19.17;;;23.90;99.90;;;;;;4996877;28;20049;-83
2023/08/23 01:35:25;;;;;;;27.35;20.08;;;23.80;99.90;;;;;;4959905;28;20511;-83
2023/08/23 01:37:54;;;;;;;34.80;20.88;;;23.80;99.90;;;;;;4996518;28;20421;-84
2023/08/23 01:40:22;;;;;;;24.70;19.33;;;23.80;99.90;;;;;;4979331;28;20029;-84
2023/08/23 01:42:48;;;;;;;27.25;19.48;;;23.80;99.90;;;;;;4978942;28;20084;-82
2023/08/23 01:45:14;;;;;;;27.40;19.75;;;23.70;99.90;;;;;;4978991;28;20042;-82
2023/08/23 01:47:40;;;;;;;27.23;20.65;;;23.80;99.90;;;;;;4996260;28;20031;-83
2023/08/23 01:50:06;;;;;;;30.45;20.38;;;23.80;99.90;;;;;;4978738;28;20038;-82
2023/08/23 01:52:32;;;;;;;27.60;19.75;;;23.80;99.90;;;;;;4978997;28;20065;-82
2023/08/23 01:54:58;;;;;;;26.50;19.63;;;23.70;99.90;;;;;;4996047;28;20076;-83
2023/08/23 01:57:23;;;;;;;29.15;20.83;;;23.70;99.90;;;;;;4978823;28;20047;-84
2023/08/23 01:59:50;;;;;;;28.88;21.25;;;23.70;99.90;;;;;;4996456;28;20035;-83
2023/08/23 02:02:16;;;;;;;31.80;21.38;;;23.60;99.90;;;;;;4995679;28;20880;-81
2023/08/23 02:04:42;;;;;;;30.70;21.13;;;23.60;99.90;;;;;;4996374;28;20038;-81
2023/08/23 02:07:07;;;;;;;33.10;20.42;;;23.40;99.90;;;;;;4978771;28;20026;-83
2023/08/23 02:09:33;;;;;;;29.73;20.70;;;23.40;99.90;;;;;;4995671;28;20460;-82
2023/08/23 02:11:59;;;;;;;27.70;19.35;;;23.30;99.90;;;;;;4996090;28;20420;-83
2023/08/23 02:14:25;;;;;;;26.80;19.38;;;23.40;99.90;;;;;;4978612;28;20026;-82
2023/08/23 02:16:51;;;;;;;29.90;20.60;;;23.40;99.90;;;;;;4995795;28;20022;-83
2023/08/23 02:19:17;;;;;;;31.23;18.85;;;23.40;99.90;;;;;;4995728;28;20062;-83
2023/08/23 02:21:43;;;;;;;28.85;18.05;;;23.40;99.90;;;;;;4978430;28;20030;-82
2023/08/23 02:24:08;;;;;;;26.23;18.30;;;23.30;99.90;;;;;;4995860;28;20030;-83
2023/08/23 02:26:37;;;;;;;27.25;18.67;;;23.40;99.90;;;;;;4978338;28;20485;-83
2023/08/23 02:29:04;;;;;;;26.75;19.38;;;23.30;99.90;;;;;;4978354;28;20050;-82
2023/08/23 02:31:30;;;;;;;28.55;19.42;;;23.20;99.90;;;;;;4995762;28;20041;-83
2023/08/23 02:33:56;;;;;;;27.23;19.98;;;23.20;99.90;;;;;;4978334;28;20026;-81
2023/08/23 02:36:22;;;;;;;29.20;19.35;;;23.20;99.90;;;;;;4978184;28;20535;-81
2023/08/23 02:38:47;;;;;;;29.83;20.38;;;23.10;99.90;;;;;;4977882;28;20045;-81
2023/08/23 02:41:13;;;;;;;27.35;19.00;;;23.10;99.90;;;;;;4978146;28;20052;-83
2023/08/23 02:43:39;;;;;;;34.00;20.65;;;23.10;99.90;;;;;;4977958;28;20057;-82
2023/08/23 02:46:05;;;;;;;29.90;19.27;;;23.10;99.90;;;;;;4977540;28;20037;-82
2023/08/23 02:48:30;;;;;;;26.88;18.45;;;23.00;99.90;;;;;;4978221;28;20031;-83
2023/08/23 02:50:56;;;;;;;29.13;20.00;;;23.00;99.90;;;;;;4994876;28;20412;-80
2023/08/23 02:53:22;;;;;;;44.30;19.75;;;23.00;99.90;;;;;;4977959;28;20033;-83
2023/08/23 02:55:48;;;;;;;27.98;19.65;;;23.00;99.90;;;;;;4977611;28;20042;-83
2023/08/23 02:58:14;;;;;;;32.47;19.95;;;23.00;99.90;;;;;;4977277;28;20084;-81
2023/08/23 03:00:39;;;;;;;32.10;18.63;;;22.90;99.90;;;;;;4977096;28;20057;-81
2023/08/23 03:03:05;;;;;;;30.60;19.48;;;23.00;99.90;;;;;;4994867;28;20461;-82
2023/08/23 03:05:31;;;;;;;28.10;18.00;;;23.00;99.90;;;;;;4994778;28;20381;-82
2023/08/23 03:07:57;;;;;;;29.08;19.65;;;22.90;99.90;;;;;;4994846;28;20034;-82
2023/08/23 03:10:23;;;;;;;28.60;18.88;;;22.90;99.90;;;;;;4994996;28;20085;-83
2023/08/23 03:12:49;;;;;;;25.85;17.75;;;22.90;99.90;;;;;;4994789;28;20100;-83
2023/08/23 03:15:15;;;;;;;35.47;20.50;;;22.90;99.90;;;;;;4977347;28;20129;-83
2023/08/23 03:17:40;;;;;;;26.52;18.75;;;22.90;99.90;;;;;;4977474;28;20427;-82
2023/08/23 03:20:07;;;;;;;29.52;19.05;;;22.90;99.90;;;;;;4977189;28;20037;-81
2023/08/23 03:22:33;;;;;;;26.95;18.73;;;22.90;99.90;;;;;;4977481;28;20057;-83
2023/08/23 03:24:58;;;;;;;24.13;17.13;;;22.90;99.90;;;;;;4974266;28;20477;-84
2023/08/23 03:27:25;;;;;;;27.65;18.88;;;22.80;99.90;;;;;;4977845;28;20049;-84
2023/08/23 03:29:51;;;;;;;24.67;18.70;;;22.80;99.90;;;;;;4977338;28;20493;-81
2023/08/23 03:32:19;;;;;;;25.45;17.90;;;22.80;99.90;;;;;;4995071;28;20515;-82
2023/08/23 03:34:45;;;;;;;25.90;18.90;;;22.70;99.90;;;;;;4976969;28;20030;-82
2023/08/23 03:37:11;;;;;;;27.00;18.33;;;22.80;99.90;;;;;;4977177;28;20418;-81
2023/08/23 03:39:37;;;;;;;28.50;18.35;;;22.70;99.90;;;;;;4977058;28;20030;-81
2023/08/23 03:42:04;;;;;;;25.60;18.67;;;22.70;99.90;;;;;;4994327;28;20046;-83
2023/08/23 03:44:29;;;;;;;29.80;18.52;;;22.70;99.90;;;;;;4977050;28;20034;-81
2023/08/23 03:46:58;;;;;;;38.13;18.73;;;22.70;99.90;;;;;;4994275;28;20084;-83
2023/08/23 03:49:24;;;;;;;29.52;18.33;;;22.70;99.90;;;;;;4976776;28;20104;-83
2023/08/23 03:51:50;;;;;;;32.88;21.65;;;22.50;99.90;;;;;;4976930;28;20077;-82
2023/08/23 03:58:01;;;;;;;27.75;20.88;;;22.40;99.90;;;;;;4913628;29;20083;-83
2023/08/23 04:01:36;;;;;;;;;;;;;;;;;;;;;
2023/08/23 04:11:42;;;;;;;27.52;20.15;;;22.30;99.90;;;;;;4859969;29;20041;-82
2023/08/23 04:14:48;;;;;;;28.80;21.52;;;22.10;99.90;;;;;;4865467;29;20033;-82
2023/08/23 04:17:49;;;;;;;29.23;21.33;;;22.20;99.90;;;;;;4837348;29;20050;-82
2023/08/23 04:33:24;;;;;;;29.63;20.13;;;22.20;99.90;;;;;;4830013;29;20639;-82
2023/08/23 04:39:12;;;;;;;34.80;22.40;;;22.40;99.90;;;;;;4825655;29;20173;-81
2023/08/23 04:41:38;;;;;;;34.30;21.20;;;22.40;99.90;;;;;;4825702;29;20067;-81
2023/08/23 04:44:04;;;;;;;29.25;19.98;;;22.50;99.90;;;;;;4825179;29;20043;-81
2023/08/23 04:46:30;;;;;;;33.70;21.30;;;22.60;99.90;;;;;;4825322;29;20054;-81
2023/08/23 04:48:55;;;;;;;36.83;22.27;;;22.60;99.90;;;;;;4825450;29;20030;-81
2023/08/23 04:51:22;;;;;;;35.85;22.52;;;22.60;99.90;;;;;;4809866;29;20042;-81
2023/08/23 04:53:48;;;;;;;38.20;22.38;;;22.60;99.90;;;;;;4837277;29;20048;-81
2023/08/23 04:56:14;;;;;;;39.80;24.55;;;22.60;99.90;;;;;;4898987;29;20123;-82
2023/08/23 04:58:40;;;;;;;40.65;24.80;;;22.70;99.90;;;;;;4898911;29;20458;-81
2023/08/23 05:01:06;;;;;;;44.45;23.75;;;22.70;99.90;;;;;;4899434;29;20455;-82
2023/08/23 05:03:32;;;;;;;37.85;24.48;;;22.70;99.90;;;;;;4883559;29;20045;-82
2023/08/23 05:05:59;;;;;;;37.85;23.70;;;22.80;99.90;;;;;;4890558;29;20047;-81
2023/08/23 05:08:25;;;;;;;37.15;23.42;;;22.80;99.90;;;;;;4923828;28;20032;-81
2023/08/23 05:10:52;;;;;;;37.08;22.73;;;;;;;;;;4979905;28;20181;-81
2023/08/23 05:13:19;;;;;;;39.25;25.13;;;23.00;99.90;;;;;;4996977;28;20022;-81
2023/08/23 05:15:45;;;;;;;34.15;23.02;;;23.10;99.90;;;;;;4976396;28;20388;-81
2023/08/23 05:18:12;;;;;;;37.38;24.08;;;23.20;99.90;;;;;;4979426;28;20077;-81
2023/08/23 05:20:37;;;;;;;36.95;23.73;;;23.20;99.90;;;;;;4979667;28;20049;-81
2023/08/23 05:23:03;;;;;;;37.83;23.98;;;23.30;99.90;;;;;;4996393;28;20026;-81
2023/08/23 05:25:29;;;;;;;37.13;23.98;;;23.40;99.90;;;;;;4979151;28;20089;-80
2023/08/23 05:27:55;;;;;;;32.90;22.80;;;23.50;99.90;;;;;;4979484;28;20026;-81
2023/08/23 05:30:21;;;;;;;42.50;23.23;;;23.60;99.90;;;;;;4979407;28;20033;-81
2023/08/23 05:32:47;;;;;;;41.42;25.50;;;23.60;99.90;;;;;;4979152;28;20035;-81
2023/08/23 05:35:12;;;;;;;43.70;25.23;;;23.70;99.90;;;;;;4996736;28;20038;-82
2023/08/23 05:37:39;;;;;;;40.47;25.58;;;23.90;99.90;;;;;;4997048;28;20037;-81
2023/08/23 05:40:07;;;;;;;41.10;26.35;;;23.90;99.90;;;;;;4996782;28;20037;-82
2023/08/23 05:42:33;;;;;;;48.97;27.02;;;;;;;;;;4996695;28;20441;-81
2023/08/23 05:45:00;;;;;;;51.10;29.30;;;;;;;;;;4996246;28;20033;-82
2023/08/23 05:47:26;;;;;;;52.78;30.77;;;;;;;;;;4978805;28;20095;-81
2023/08/23 05:49:53;;;;;;;54.88;29.35;;;;;;;;;;4979154;28;20023;-81
2023/08/23 05:52:19;;;;;;;46.67;27.35;;;;;;;;;;4979070;28;20022;-82
2023/08/23 05:54:45;;;;;;;47.90;25.58;;;;;;;;;;4996147;28;20050;-82
2023/08/23 05:57:11;;;;;;;46.80;25.50;;;;;;;;;;4978613;28;20401;-82
2023/08/23 05:59:37;;;;;;;45.50;23.13;;;;;;;;;;4978955;28;20065;-82
2023/08/23 06:02:04;;;;;;;43.33;23.77;;;;;;;;;;4978539;28;20373;-82
2023/08/23 06:04:30;;;;;;;36.78;23.02;;;;;;;;;;4996519;28;20027;-81
2023/08/23 06:06:56;;;;;;;33.50;21.40;;;;;;;;;;4995568;28;20179;-81
2023/08/23 06:09:23;;;;;;;41.92;23.20;;;;;;;;;;4996292;28;20528;-82
2023/08/23 06:11:49;;;;;;;39.58;21.60;;;;;;;;;;4978757;28;20109;-82
2023/08/23 06:14:20;;;;;;;35.78;22.08;;;;;;;;;;4978333;28;20032;-82
2023/08/23 06:16:46;;;;;;;32.83;19.90;;;;;;;;;;4996001;28;20061;-82
2023/08/23 06:19:12;;;;;;;30.08;20.63;;;;;;;;;;4996003;28;20035;-82
2023/08/23 06:21:41;;;;;;;29.65;19.65;;;;;;;;;;4995422;28;20377;-81
2023/08/23 06:24:07;;;;;;;28.55;19.67;;;;;;;;;;4995959;28;20022;-81
2023/08/23 06:26:33;;;;;;;25.98;18.30;;;;;;;;;;4995783;28;20022;-82
2023/08/23 06:28:59;;;;;;;34.60;18.45;;;;;;;;;;4978129;28;20424;-82
2023/08/23 06:31:25;;;;;;;27.02;16.52;;;;;;;;;;4996075;28;20030;-82
2023/08/23 06:33:51;;;;;;;26.15;16.85;;;;;;;;;;4978111;28;20037;-82
2023/08/23 06:36:17;;;;;;;21.55;15.73;;;;;;;;;;4977077;28;20038;-82
2023/08/23 06:38:44;;;;;;;23.80;16.42;;;;;;;;;;4995422;28;20077;-82
2023/08/23 06:41:10;;;;;;;26.23;15.75;;;;;;;;;;4995869;28;20427;-82
2023/08/23 06:43:36;;;;;;;27.20;15.93;;;;;;;;;;4994919;28;20044;-82
2023/08/23 06:46:02;;;;;;;19.55;14.88;;;;;;;;;;4977981;28;20491;-82
2023/08/23 06:48:28;;;;;;;24.65;15.52;;;;;;;;;;4978075;28;20479;-81
2023/08/23 06:50:54;;;;;;;20.73;14.93;;;;;;;;;;4994813;28;20109;-82
2023/08/23 06:53:21;;;;;;;19.23;14.35;;;;;;;;;;4977972;28;20029;-82
2023/08/23 06:55:47;;;;;;;21.65;14.27;;;;;;;;;;4977565;28;20057;-82
2023/08/23 06:58:15;;;;;;;21.88;14.35;;;;;;;;;;4995019;28;20046;-82
2023/08/23 07:00:41;;;;;;;21.92;15.10;;;;;;;;;;4977788;28;20027;-82
2023/08/23 07:03:07;;;;;;;18.33;12.82;;;;;;;;;;4994840;28;20077;-83
2023/08/23 07:05:34;;;;;;;19.08;13.32;;;;;;;;;;4977585;28;20022;-82
2023/08/23 07:08:01;;;;;;;20.17;13.05;;;;;;;;;;4995204;28;20110;-81
2023/08/23 07:10:27;;;;;;;18.05;13.00;;;;;;;;;;4977309;28;20022;-81
2023/08/23 07:12:53;;;;;;;20.38;14.98;;;;;;;;;;4995142;28;20034;-81
2023/08/23 07:15:19;;;;;;;18.30;13.35;;;;;;;;;;4993173;28;20076;-82
2023/08/23 07:17:45;;;;;;;22.00;13.52;;;;;;;;;;4977132;28;20054;-81
2023/08/23 07:20:13;;;;;;;18.20;13.95;;;;;;;;;;4977393;28;20029;-81
2023/08/23 07:22:40;;;;;;;26.02;13.85;;;;;;;;;;4977340;28;20018;-80
2023/08/23 07:25:07;;;;;;;20.10;13.73;;;;;;;;;;4994539;28;20484;-80
2023/08/23 07:27:33;;;;;;;25.60;13.52;;;;;;;;;;4994824;28;20026;-80
2023/08/23 07:29:59;;;;;;;20.85;14.63;;;;;;;;;;4994693;28;20081;-81
2023/08/23 07:32:30;;;;;;;21.13;14.45;;;;;;;;;;4994252;28;20106;-80
2023/08/23 07:34:56;;;;;;;23.73;14.17;;;;;;;;;;4990749;28;20022;-81
2023/08/23 07:37:23;;;;;;;28.90;14.82;;;;;;;;;;4988544;28;20022;-81
2023/08/23 07:39:49;;;;;;;25.02;14.23;;;;;;;;;;4994303;28;20027;-80
2023/08/23 07:42:15;;;;;;;25.25;16.63;;;;;;;;;;4994582;28;20041;-81
2023/08/23 07:44:41;;;;;;;25.58;14.18;;;;;;;;;;4994639;28;20345;-84
2023/08/23 07:47:07;;;;;;;31.70;16.30;;;;;;;;;;4993540;28;20026;-81
2023/08/23 07:49:33;;;;;;;22.35;15.77;;;;;;;;;;4976799;28;20034;-81
2023/08/23 07:52:00;;;;;;;24.13;15.20;;;;;;;;;;4994007;28;20031;-82
2023/08/23 07:54:26;;;;;;;28.77;16.48;;;;;;;;;;4994566;28;20465;-80
2023/08/23 07:56:53;;;;;;;30.23;18.52;;;;;;;;;;4993277;28;20082;-81
2023/08/23 07:59:20;;;;;;;31.50;17.58;;;;;;;;;;4993756;28;20031;-81
2023/08/23 08:01:46;;;;;;;22.20;15.48;;;;;;;;;;4994214;28;20030;-81
2023/08/23 08:04:12;;;;;;;21.45;15.38;;;;;;;;;;4976992;28;20030;-81
2023/08/23 08:06:39;;;;;;;27.77;14.77;;;;;;;;;;4976530;28;20026;-81
2023/08/23 08:09:05;;;;;;;21.77;14.43;;;;;;;;;;4994221;28;20030;-81
2023/08/23 08:11:31;;;;;;;20.80;14.40;;;;;;;;;;4976799;28;20456;-82
2023/08/23 08:13:58;;;;;;;26.55;14.35;;;;;;;;;;4994280;28;20022;-81
2023/08/23 08:16:24;;;;;;;20.70;14.55;;;;;;;;;;4976693;28;20027;-80
2023/08/23 08:18:50;;;;;;;23.48;14.65;;;;;;;;;;4994178;28;20054;-80
2023/08/23 08:21:17;;;;;;;20.17;13.77;;;;;;;;;;4993838;28;20027;-82
2023/08/23 08:23:46;;;;;;;19.27;13.50;;;;;;;;;;4994202;28;20027;-82
2023/08/23 08:26:13;;;;;;;18.98;12.23;;;;;;;;;;4976633;28;20022;-82
2023/08/23 08:28:42;;;;;;;29.77;13.38;;;;;;;;;;4973130;28;20027;-82
2023/08/23 08:31:25;;;;;;;22.08;14.75;;;;;;;;;;4987291;28;20022;-82
2023/08/23 08:33:51;;;;;;;19.80;13.40;;;;;;;;;;4976344;28;20031;-82
2023/08/23 08:36:17;;;;;;;19.92;12.93;;;;;;;;;;4976161;28;20210;-82
2023/08/23 08:38:43;;;;;;;20.70;14.45;;;;;;;;;;4976612;28;20033;-82
2023/08/23 08:41:12;;;;;;;21.48;13.93;;;;;;;;;;4993361;28;20032;-83
2023/08/23 08:43:39;;;;;;;24.67;13.10;;;;;;;;;;4976503;28;20404;-84
2023/08/23 08:46:06;;;;;;;21.80;13.07;;;;;;;;;;4976453;28;20473;-84
2023/08/23 08:48:32;;;;;;;22.73;13.52;;;;;;;;;;4975591;28;20027;-83
2023/08/23 08:50:59;;;;;;;19.05;12.77;;;;;;;;;;4975653;28;20066;-84
2023/08/23 08:53:26;;;;;;;17.00;12.55;;;;;;;;;;4976674;28;20376;-84
2023/08/23 08:55:53;;;;;;;21.90;13.07;;;;;;;;;;4976073;28;20073;-83
2023/08/23 08:58:20;;;;;;;22.70;11.80;;;;;;;;;;4977321;28;20046;-85
2023/08/23 09:00:48;;;;;;;19.27;12.10;;;;;;;;;;4979974;28;20026;-84
2023/08/23 09:03:17;;;;;;;17.92;11.80;;;;;;;;;;4977988;28;20435;-85
2023/08/23 09:05:43;;;;;;;14.77;11.50;;;;;;;;;;4979131;28;20062;-83
2023/08/23 09:08:09;;;;;;;15.45;10.27;;;;;;;;;;4979613;28;20031;-83
2023/08/23 09:10:35;;;;;;;19.85;11.68;;;;;;;;;;4996771;28;20035;-85
2023/08/23 09:13:02;;;;;;;17.90;10.65;;;;;;;;;;4996330;28;20026;-85
2023/08/23 09:15:29;;;;;;;22.95;12.48;;;;;;;;;;4979149;28;20477;-85
2023/08/23 09:17:55;;;;;;;16.00;10.90;;;;;;;;;;4979164;28;20041;-85
2023/08/23 09:20:22;;;;;;;19.50;11.25;;;;;;;;;;4979740;28;20027;-84
2023/08/23 09:22:52;;;;;;;17.35;11.85;;;;;;;;;;4979089;28;20030;-82
2023/08/23 09:25:18;;;;;;;14.57;11.13;;;;;;;;;;4979341;28;20113;-85
2023/08/23 09:27:44;;;;;;;22.17;11.20;;;;;;;;;;4997041;28;20027;-83
2023/08/23 09:30:12;;;;;;;22.75;11.98;;;;;;;;;;4979023;28;20390;-83
2023/08/23 09:32:39;;;;;;;19.23;12.55;;;;;;;;;;4979392;28;20033;-83
2023/08/23 09:35:11;;;;;;;19.98;11.85;;;;;;;;;;4979228;28;20420;-84
2023/08/23 09:37:44;;;;;;;15.65;11.60;;;;;;;;;;4976783;28;20027;-84
2023/08/23 09:40:21;;;;;;;20.67;12.00;;;;;;;;;;4964601;28;20540;-85
2023/08/23 09:42:47;;;;;;;20.83;11.75;;;;;;;;;;4979280;28;20468;-84
2023/08/23 09:45:18;;;;;;;17.17;11.50;;;;;;;;;;4978870;28;20040;-85
2023/08/23 09:47:50;;;;;;;20.42;11.70;;;;;;;;;;4979361;28;20022;-82
2023/08/23 09:50:17;;;;;;;17.35;11.73;;;;;;;;;;4979232;28;20030;-83
2023/08/23 09:52:51;;;;;;;15.18;11.43;;;;;;;;;;4978825;28;20026;-83
2023/08/23 09:55:17;;;;;;;20.35;11.57;;;;;;;;;;4978845;28;20088;-86
2023/08/23 09:57:43;;;;;;;23.13;11.20;;;;;;;;;;4978669;28;20057;-85
2023/08/23 10:00:10;;;;;;;17.50;10.40;;;;;;;;;;4978856;28;20480;-86
2023/08/23 10:02:37;;;;;;;30.33;10.85;;;;;;;;;;4978890;28;20034;-82
2023/08/23 10:05:04;;;;;;;18.23;12.20;;;;;;;;;;4978469;28;20479;-82
2023/08/23 10:07:34;;;;;;;16.00;10.90;;;;;;;;;;4979001;28;20121;-85
2023/08/23 10:10:01;;;;;;;13.77;9.93;;;;;;;;;;4995713;28;20026;-83
2023/08/23 10:12:28;;;;;;;20.52;10.55;;;;;;;;;;4995940;28;20030;-84
2023/08/23 10:14:56;;;;;;;13.73;10.93;;;;;;;;;;4980588;28;20022;-83
2023/08/23 10:17:23;;;;;;;18.70;10.40;;;;;;;;;;4992249;28;20027;-85
2023/08/23 10:19:52;;;;;;;12.55;10.45;;;;;;;;;;4978217;28;20033;-84
2023/08/23 10:22:18;;;;;;;14.38;10.32;;;;;;;;;;4978372;28;20034;-85
2023/08/23 10:24:48;;;;;;;20.83;10.32;;;;;;;;;;4978427;28;20076;-87
2023/08/23 10:27:15;;;;;;;12.70;10.32;;;;;;;;;;4978134;28;20025;-83
2023/08/23 10:29:42;;;;;;;14.82;10.88;;;;;;;;;;4978592;28;20022;-84
2023/08/23 10:32:09;;;;;;;16.52;10.25;;;;;;;;;;4978350;28;20419;-81
2023/08/23 10:34:39;;;;;;;15.52;10.00;;;;;;;;;;4995557;28;20033;-84
2023/08/23 10:37:14;;;;;;;13.32;9.13;;;;;;;;;;4995671;28;20038;-81
2023/08/23 10:39:46;;;;;;;16.10;10.15;;;;;;;;;;4978214;28;20053;-86
2023/08/23 10:42:12;;;;;;;12.68;9.77;;;;;;;;;;4978101;28;20030;-86
2023/08/23 10:44:45;;;;;;;13.45;9.25;;;;;;;;;;4978128;28;20030;-85
2023/08/23 10:47:12;;;;;;;15.30;10.10;;;;;;;;;;4977640;28;20030;-82
2023/08/23 10:49:39;;;;;;;13.50;9.95;;;;;;;;;;4995502;28;20018;-83
2023/08/23 10:52:06;;;;;;;13.23;9.70;;;;;;;;;;4978209;28;20054;-85
2023/08/23 10:54:34;;;;;;;13.95;9.38;;;;;;;;;;4995123;28;20080;-82
2023/08/23 10:57:00;;;;;;;10.65;9.18;;;;;;;;;;4977577;28;20061;-84
2023/08/23 10:59:26;;;;;;;11.98;9.70;;;;;;;;;;4978167;28;20397;-81
2023/08/23 11:01:53;;;;;;;13.45;9.55;;;;;;;;;;4994705;28;20073;-88
2023/08/23 11:04:19;;;;;;;13.85;9.55;;;;;;;;;;4977783;28;20065;-84
2023/08/23 11:06:46;;;;;;;14.00;8.95;;;;;;;;;;4977562;28;20037;-83
2023/08/23 11:09:12;;;;;;;13.23;8.45;;;;;;;;;;4995135;28;20014;-86
2023/08/23 11:11:38;;;;;;;15.50;8.75;;;;;;;;;;4977681;28;20037;-86
2023/08/23 11:14:05;;;;;;;12.55;9.25;;;;;;;;;;4977632;28;20033;-81
2023/08/23 11:16:31;;;;;;;15.50;8.82;;;;;;;;;;4994673;28;20034;-85
2023/08/23 11:18:57;;;;;;;12.15;8.65;;;;;;;;;;4977592;28;20492;-84
2023/08/23 11:21:23;;;;;;;14.00;8.18;;;;;;;;;;4973582;28;20030;-84
2023/08/23 11:23:49;;;;;;;18.63;8.18;;;;;;;;;;4979586;28;20027;-84
2023/08/23 11:26:16;;;;;;;13.40;7.70;;;;;;;;;;4995021;28;20028;-82
2023/08/23 11:28:45;;;;;;;9.68;7.90;;;;;;;;;;4994918;28;20019;-86
2023/08/23 11:31:14;;;;;;;16.92;7.35;;;;;;;;;;4977277;28;20065;-90
2023/08/23 11:33:42;;;;;;;14.30;7.70;;;;;;;;;;4977080;28;20038;-86
2023/08/23 11:36:09;;;;;;;13.35;8.55;;;;;;;;;;4976982;28;20046;-85
2023/08/23 11:38:35;;;;;;;11.82;7.85;;;;;;;;;;4977257;28;20030;-84
2023/08/23 11:41:02;;;;;;;14.43;7.75;;;;;;;;;;4994600;28;20456;-86
2023/08/23 11:43:29;;;;;;;14.48;8.00;;;;;;;;;;4976893;28;20050;-88
2023/08/23 11:45:55;;;;;;;11.82;7.97;;;;;;;;;;4977069;28;20034;-86
2023/08/23 11:48:23;;;;;;;14.77;8.55;;;;;;;;;;4977122;28;20117;-83
2023/08/23 11:50:50;;;;;;;10.63;8.48;;;;;;;;;;4976734;28;20026;-83
2023/08/23 11:53:16;;;;;;;13.20;7.50;;;;;;;;;;4994512;28;20026;-84
2023/08/23 11:55:42;;;;;;;9.48;7.57;;;;;;;;;;4976905;28;20033;-83
2023/08/23 11:58:11;;;;;;;10.15;7.57;;;;;;;;;;4976074;28;20061;-83
2023/08/23 12:00:38;;;;;;;10.50;7.28;;;;;;;;;;4994164;28;20018;-82
2023/08/23 12:03:05;;;;;;;13.02;7.20;;;;;;;;;;4976716;28;20542;-83
2023/08/23 12:05:31;;;;;;;11.05;7.40;;;;;;;;;;4976448;28;20023;-82
2023/08/23 12:07:57;;;;;;;11.73;7.75;;;;;;;;;;4994693;28;20050;-82
2023/08/23 12:10:23;;;;;;;9.82;7.88;;;;;;;;;;4994546;28;20084;-82
2023/08/23 12:12:53;;;;;;;9.57;7.35;;;;;;;;;;4993749;28;20038;-83
2023/08/23 12:15:19;;;;;;;15.55;7.93;;;;;;;;;;4993844;28;20035;-83
2023/08/23 12:17:45;;;;;;;12.98;7.65;;;;;;;;;;4976812;28;20027;-84
2023/08/23 12:20:11;;;;;;;12.38;7.22;;;;;;;;;;4973210;28;20034;-82
2023/08/23 12:22:38;;;;;;;9.25;7.30;;;;;;;;;;4978933;28;20441;-83
2023/08/23 12:25:04;;;;;;;14.05;7.80;;;;;;;;;;4976725;28;20425;-83
2023/08/23 12:27:30;;;;;;;10.15;7.53;;;;;;;;;;4994276;28;20026;-82
2023/08/23 12:29:56;;;;;;;12.80;9.30;;;;;;;;;;4976707;28;20174;-83
2023/08/23 12:32:23;;;;;;;17.02;8.32;;;;;;;;;;4995129;28;20101;-82
2023/08/23 12:34:49;;;;;;;13.77;8.25;;;;;;;;;;4998023;28;20038;-83
2023/08/23 12:37:15;;;;;;;14.32;7.20;;;;;;;;;;4997851;28;20140;-82
2023/08/23 12:39:42;;;;;;;12.98;8.02;;;;;;;;;;4997388;28;20030;-82
2023/08/23 12:42:08;;;;;;;17.23;9.70;;;;;;;;;;4997940;28;20026;-82
2023/08/23 12:44:35;;;;;;;18.17;10.55;;;;;;;;;;4997853;28;20022;-83
2023/08/23 12:47:02;;;;;;;12.10;9.40;;;;;;;;;;4997371;28;20098;-82
2023/08/23 12:49:28;;;;;;;15.32;9.48;;;;;;;;;;4980236;28;20030;-81
2023/08/23 12:51:54;;;;;;;16.90;9.27;;;;;;;;;;4997711;28;20496;-81
2023/08/23 12:54:20;;;;;;;10.32;7.85;;;;;;;;;;4979868;28;20439;-82
2023/08/23 12:56:46;;;;;;;16.23;7.63;;;;;;;;;;4997528;28;20092;-83
2023/08/23 12:59:12;;;;;;;13.68;7.50;;;;;;;;;;4980161;28;20037;-84
2023/08/23 13:01:40;;;;;;;12.05;8.18;;;;;;;;;;4979765;28;20105;-81
2023/08/23 13:04:06;;;;;;;12.35;7.68;;;;;;;;;;4997490;28;20018;-82
2023/08/23 13:06:32;;;;;;;11.77;7.60;;;;;;;;;;4997425;28;20468;-82
2023/08/23 13:08:58;;;;;;;11.80;9.43;;;;;;;;;;4996745;28;20034;-82
2023/08/23 13:11:24;;;;;;;10.43;8.95;;;;;;;;;;4979855;28;20380;-82
2023/08/23 13:13:52;;;;;;;13.95;9.10;;;;;;;;;;4995855;28;20033;-83
2023/08/23 13:16:18;;;;;;;10.00;7.70;;;;;;;;;;4991236;28;20030;-81
2023/08/23 13:18:45;;;;;;;10.10;7.95;;;;;;;;;;4983176;28;20031;-82
2023/08/23 13:21:11;;;;;;;16.02;8.60;;;;;;;;;;4996811;28;20018;-82
2023/08/23 13:23:38;;;;;;;11.15;7.95;;;;;;;;;;4997238;28;20025;-82
2023/08/23 13:26:04;;;;;;;12.07;7.80;;;;;;;;;;4996945;28;20083;-82
2023/08/23 13:28:30;;;;;;;11.85;8.30;;;;;;;;;;4979222;28;20041;-82
2023/08/23 13:30:59;;;;;;;11.13;7.78;;;;;;;;;;4997256;28;20034;-82
2023/08/23 13:33:25;;;;;;;17.08;7.50;;;;;;;;;;4996649;28;20034;-82
2023/08/23 13:35:51;;;;;;;13.13;7.60;;;;;;;;;;4996594;28;20031;-82
2023/08/23 13:38:18;;;;;;;11.07;9.10;;;;;;;;;;4979438;28;20035;-82
2023/08/23 13:40:44;;;;;;;11.43;8.90;;;;;;;;;;4997091;28;20034;-84
2023/08/23 13:43:10;;;;;;;12.82;9.10;;;;;;;;;;4978871;28;20033;-83
2023/08/23 13:45:36;;;;;;;14.07;9.35;;;;;;;;;;4996425;28;20030;-82
2023/08/23 13:48:02;;;;;;;11.60;8.77;;;;;;;;;;4979255;28;20076;-82
2023/08/23 13:50:28;;;;;;;19.70;9.50;;;;;;;;;;4996141;28;20026;-82
2023/08/23 13:52:55;;;;;;;13.00;9.23;;;;;;;;;;4978851;28;20037;-82
2023/08/23 13:55:21;;;;;;;13.95;9.27;;;;;;;;;;4996746;28;20031;-82
2023/08/23 13:57:47;;;;;;;10.48;9.15;;;;;;;;;;4978485;28;20381;-81
2023/08/23 14:00:13;;;;;;;13.52;9.32;;;;;;;;;;4979020;28;20469;-81
2023/08/23 14:02:39;;;;;;;11.70;9.05;;;;;;;;;;4996675;28;20053;-82
2023/08/23 14:05:06;;;;;;;14.07;8.80;;;;;;;;;;4995678;28;20491;-81
2023/08/23 14:07:32;;;;;;;11.90;8.38;;;;;;;;;;4996295;28;20029;-82
2023/08/23 14:09:58;;;;;;;12.52;8.93;;;;;;;;;;4995632;28;20027;-81